Time;durP1;ratioP1;P1;durP2;ratioP2;P2;SDS_P1;SDS_P2;PMS_P1;PMS_P2;Temp;Humidity;BMP_temperature;BMP_pressure;BME280_temperature;BME280_humidity;BME280_pressure;Samples;Min_cycle;Max_cycle;Signal;HPM_P1;HPM_P2
2021/03/04 00:02:01;;;;;;;47.30;43.47;;;;;;;;;;5043741;28;20037;-77
2021/03/04 00:04:28;;;;;;;40.15;37.42;;;;;;;;;;5033474;28;20114;-77
2021/03/04 00:06:55;;;;;;;34.85;32.80;;;;;;;;;;5042921;28;20098;-77
2021/03/04 00:09:21;;;;;;;36.83;34.67;;;;;;;;;;5049765;28;20090;-77
2021/03/04 00:11:48;;;;;;;39.90;37.53;;;;;;;;;;5029637;28;20098;-76
2021/03/04 00:14:15;;;;;;;38.85;36.60;;;;;;;;;;5043925;28;20043;-76
2021/03/04 00:16:42;;;;;;;36.50;34.58;;;;;;;;;;5033446;28;20486;-76
2021/03/04 00:19:10;;;;;;;37.17;35.22;;;;;;;;;;5039939;28;20502;-76
2021/03/04 00:21:37;;;;;;;38.92;36.53;;;;;;;;;;5027822;28;20033;-76
2021/03/04 00:24:04;;;;;;;40.72;37.97;;;;;;;;;;5032703;28;20072;-76
2021/03/04 00:26:31;;;;;;;38.35;36.00;;;;;;;;;;5048105;28;20573;-76
2021/03/04 00:28:58;;;;;;;39.97;37.35;;;;;;;;;;5032811;28;20053;-76
2021/03/04 00:31:25;;;;;;;42.45;39.58;;;;;;;;;;5026661;28;20053;-76
2021/03/04 00:33:52;;;;;;;47.13;43.63;;;;;;;;;;5001676;28;20555;-76
2021/03/04 00:36:19;;;;;;;44.80;41.58;;;;;;;;;;5028010;28;20076;-76
2021/03/04 00:38:46;;;;;;;49.55;45.28;;;;;;;;;;5029011;28;20037;-76
2021/03/04 00:41:13;;;;;;;45.95;42.45;;;;;;;;;;5048645;28;20036;-76
2021/03/04 00:43:39;;;;;;;44.25;40.95;;;;;;;;;;5028577;28;20029;-76
2021/03/04 00:46:06;;;;;;;48.67;44.90;;;;;;;;;;5035175;28;20040;-76
2021/03/04 00:48:33;;;;;;;46.95;43.72;;;;;;;;;;5025842;28;20044;-76
2021/03/04 00:51:00;;;;;;;46.22;42.72;;;;;;;;;;5022652;28;20473;-76
2021/03/04 00:53:27;;;;;;;46.05;42.78;;;;;;;;;;5028292;28;20139;-76
2021/03/04 00:55:54;;;;;;;45.97;42.53;;;;;;;;;;5047482;28;20102;-76
2021/03/04 00:58:21;;;;;;;45.25;42.03;;;;;;;;;;5034138;28;20379;-76
2021/03/04 01:00:48;;;;;;;42.47;39.70;;;;;;;;;;5026775;28;20045;-76
2021/03/04 01:03:14;;;;;;;44.17;40.72;;;;;;;;;;5048326;28;20056;-76
2021/03/04 01:05:42;;;;;;;49.15;44.97;;;;;;;;;;5041236;28;20029;-76
2021/03/04 01:08:10;;;;;;;45.75;42.53;;;;;;;;;;5030501;28;20042;-76
2021/03/04 01:10:38;;;;;;;45.88;42.30;;;;;;;;;;5030832;28;20041;-76
2021/03/04 01:13:05;;;;;;;45.92;42.70;;;;;;;;;;5026248;28;20099;-76
2021/03/04 01:15:33;;;;;;;45.00;41.65;;;;;;;;;;5045449;28;20064;-76
2021/03/04 01:18:00;;;;;;;43.67;40.55;;;;;;;;;;5027254;28;20048;-76
2021/03/04 01:20:27;;;;;;;44.00;40.88;;;;;;;;;;5024267;28;20482;-76
2021/03/04 01:22:54;;;;;;;44.13;40.80;;;;;;;;;;5045889;28;20037;-76
2021/03/04 01:25:21;;;;;;;46.28;42.95;;;;;;;;;;5044449;28;20038;-76
2021/03/04 01:27:49;;;;;;;45.75;42.33;;;;;;;;;;5032115;28;20401;-76
2021/03/04 01:30:16;;;;;;;47.80;44.50;;;;;;;;;;5026784;28;20073;-76
2021/03/04 01:32:43;;;;;;;47.25;43.75;;;;;;;;;;5027202;28;20049;-76
2021/03/04 01:35:10;;;;;;;48.75;45.17;;;;;;;;;;5045803;28;20045;-76
2021/03/04 01:37:37;;;;;;;43.00;39.78;;;;;;;;;;5043155;28;20094;-76
2021/03/04 01:40:06;;;;;;;48.08;44.63;;;;;;;;;;5048997;28;20591;-76
2021/03/04 01:42:33;;;;;;;51.42;47.63;;;;;;;;;;5040983;28;20042;-76
2021/03/04 01:45:00;;;;;;;50.50;46.65;;;;;;;;;;5049734;28;20057;-76
2021/03/04 01:47:27;;;;;;;50.28;46.17;;;;;;;;;;5048718;28;20033;-76
2021/03/04 01:49:54;;;;;;;49.95;46.15;;;;;;;;;;5045890;28;20037;-76
2021/03/04 01:52:21;;;;;;;46.95;43.25;;;;;;;;;;5052637;28;20037;-76
2021/03/04 01:54:48;;;;;;;48.20;44.25;;;;;;;;;;5031591;28;20114;-76
2021/03/04 01:57:17;;;;;;;49.75;46.22;;;;;;;;;;5034205;28;20638;-76
2021/03/04 01:59:44;;;;;;;45.35;41.95;;;;;;;;;;5046346;28;20045;-76
2021/03/04 02:02:11;;;;;;;46.28;43.17;;;;;;;;;;5034259;28;20029;-76
2021/03/04 02:04:38;;;;;;;43.70;40.80;;;;;;;;;;5025949;28;20394;-76
2021/03/04 02:07:12;;;;;;;47.38;44.03;;;;;;;;;;5042015;28;20072;-76
2021/03/04 02:09:38;;;;;;;;;;;;;;;;;;5037820;28;20041;-76
2021/03/04 02:12:08;;;;;;;45.55;42.58;;;;;;;;;;5034802;28;20385;-76
2021/03/04 02:14:40;;;;;;;44.83;41.92;;;;;;;;;;5044727;28;20041;-76
2021/03/04 02:17:09;;;;;;;47.28;43.92;;;;;;;;;;5048699;28;20041;-76
2021/03/04 02:19:46;;;;;;;46.33;43.13;;;;;;;;;;5042538;28;20034;-76
2021/03/04 02:22:23;;;;;;;47.10;43.42;;;;;;;;;;5034897;28;20402;-76
2021/03/04 02:25:11;;;;;;;46.63;43.35;;;;;;;;;;5016951;28;20118;-76
2021/03/04 02:27:39;;;;;;;45.55;42.40;;;;;;;;;;5042308;28;20529;-76
2021/03/04 02:30:06;;;;;;;46.00;42.72;;;;;;;;;;5025401;28;20034;-76
2021/03/04 02:32:34;;;;;;;48.58;45.28;;;;;;;;;;5027249;28;20560;-76
2021/03/04 02:35:09;;;;;;;44.95;41.85;;;;;;;;;;5038159;28;20063;-77
2021/03/04 02:37:37;;;;;;;46.75;43.00;;;;;;;;;;5039739;28;20502;-77
2021/03/04 02:40:04;;;;;;;46.97;43.35;;;;;;;;;;5024727;28;20091;-76
2021/03/04 02:42:32;;;;;;;50.00;46.58;;;;;;;;;;5024860;28;20048;-76
2021/03/04 02:44:59;;;;;;;42.50;39.13;;;;;;;;;;5025203;28;20164;-76
2021/03/04 02:47:26;;;;;;;42.42;39.60;;;;;;;;;;5023511;28;20060;-76
2021/03/04 02:49:53;;;;;;;45.22;42.42;;;;;;;;;;5021659;28;20554;-76
2021/03/04 02:52:21;;;;;;;45.15;42.15;;;;;;;;;;5022153;28;20057;-76
2021/03/04 02:54:48;;;;;;;44.97;42.03;;;;;;;;;;5021885;28;20041;-76
2021/03/04 02:57:16;;;;;;;44.60;41.78;;;;;;;;;;5024885;28;20445;-76
2021/03/04 02:59:43;;;;;;;47.38;44.45;;;;;;;;;;5033960;28;20045;-76
2021/03/04 03:02:11;;;;;;;47.55;44.40;;;;;;;;;;5025837;28;20041;-76
2021/03/04 03:04:40;;;;;;;42.50;39.88;;;;;;;;;;5031062;28;20072;-76
2021/03/04 03:07:08;;;;;;;48.22;44.80;;;;;;;;;;5047908;28;20041;-76
2021/03/04 03:09:37;;;;;;;50.38;46.92;;;;;;;;;;5024529;28;20413;-76
2021/03/04 03:12:04;;;;;;;48.77;45.03;;;;;;;;;;5023338;28;671339;-76
2021/03/04 03:14:31;;;;;;;44.15;40.78;;;;;;;;;;5031241;28;20487;-76
2021/03/04 03:16:58;;;;;;;50.55;47.05;;;;;;;;;;5032881;28;20489;-76
2021/03/04 03:19:26;;;;;;;49.25;45.95;;;;;;;;;;5026423;28;20422;-76
2021/03/04 03:21:53;;;;;;;47.15;43.72;;;;;;;;;;5029658;28;20485;-76
2021/03/04 03:24:20;;;;;;;47.70;44.42;;;;;;;;;;5018081;28;20037;-76
2021/03/04 03:26:47;;;;;;;48.00;44.65;;;;;;;;;;5031113;28;20033;-76
2021/03/04 03:29:14;;;;;;;47.25;43.97;;;;;;;;;;5051186;28;20514;-76
2021/03/04 03:31:42;;;;;;;48.72;45.50;;;;;;;;;;5029571;28;20045;-76
2021/03/04 03:34:10;;;;;;;42.30;39.38;;;;;;;;;;5044982;28;20540;-76
2021/03/04 03:36:38;;;;;;;48.53;45.55;;;;;;;;;;5050605;28;20045;-76
2021/03/04 03:39:06;;;;;;;43.75;40.90;;;;;;;;;;5028645;28;20045;-76
2021/03/04 03:41:34;;;;;;;45.80;42.90;;;;;;;;;;5051707;28;20049;-76
2021/03/04 03:44:01;;;;;;;46.78;43.63;;;;;;;;;;5045936;28;20044;-76
2021/03/04 03:46:31;;;;;;;48.47;44.90;;;;;;;;;;5046490;28;20478;-76
2021/03/04 03:48:59;;;;;;;47.35;44.13;;;;;;;;;;5038753;28;20041;-76
2021/03/04 03:51:26;;;;;;;45.63;42.83;;;;;;;;;;5012104;28;20052;-76
2021/03/04 03:53:54;;;;;;;47.85;44.92;;;;;;;;;;5052146;28;20044;-76
2021/03/04 03:56:21;;;;;;;49.03;46.00;;;;;;;;;;5045869;28;20465;-76
2021/03/04 03:58:48;;;;;;;47.63;44.53;;;;;;;;;;5031867;28;20096;-76
2021/03/04 04:01:15;;;;;;;44.90;41.72;;;;;;;;;;5028855;28;20041;-76
2021/03/04 04:03:42;;;;;;;46.70;43.53;;;;;;;;;;5043391;28;20061;-76
2021/03/04 04:06:09;;;;;;;46.80;43.63;;;;;;;;;;5051989;28;20554;-76
2021/03/04 04:08:37;;;;;;;46.30;43.13;;;;;;;;;;5028819;28;20045;-76
2021/03/04 04:11:04;;;;;;;45.25;41.97;;;;;;;;;;5048577;28;20041;-76
2021/03/04 04:13:31;;;;;;;46.88;43.65;;;;;;;;;;5016818;28;20056;-76
2021/03/04 04:15:57;;;;;;;46.05;43.03;;;;;;;;;;5045964;28;20045;-76
2021/03/04 04:18:24;;;;;;;48.08;44.95;;;;;;;;;;5051114;28;20041;-76
2021/03/04 04:20:52;;;;;;;46.22;43.08;;;;;;;;;;5042309;28;20367;-76
2021/03/04 04:23:19;;;;;;;46.85;43.42;;;;;;;;;;5051114;28;20102;-76
2021/03/04 04:25:51;;;;;;;47.65;44.25;;;;;;;;;;5046700;28;20090;-76
2021/03/04 04:28:18;;;;;;;45.13;42.00;;;;;;;;;;5027971;28;20033;-76
2021/03/04 04:30:45;;;;;;;48.63;45.03;;;;;;;;;;5030807;28;20099;-76
2021/03/04 04:33:12;;;;;;;50.83;46.88;;;;;;;;;;5043878;28;20467;-76
2021/03/04 04:35:39;;;;;;;50.53;47.40;;;;;;;;;;5022495;28;20442;-76
2021/03/04 04:38:06;;;;;;;46.30;43.33;;;;;;;;;;5020917;28;20129;-76
2021/03/04 04:40:33;;;;;;;49.42;46.20;;;;;;;;;;5006153;28;20041;-76
2021/03/04 04:43:00;;;;;;;45.47;42.53;;;;;;;;;;5042491;28;20053;-76
2021/03/04 04:45:27;;;;;;;46.13;43.45;;;;;;;;;;5044220;28;20076;-76
2021/03/04 04:47:54;;;;;;;47.72;44.53;;;;;;;;;;5033903;28;20044;-76
2021/03/04 04:50:21;;;;;;;50.13;46.38;;;;;;;;;;5026698;28;20116;-76
2021/03/04 04:52:48;;;;;;;50.55;47.15;;;;;;;;;;5031428;28;20128;-76
2021/03/04 04:55:14;;;;;;;45.75;42.35;;;;;;;;;;5048124;28;20482;-76
2021/03/04 04:57:41;;;;;;;46.00;43.20;;;;;;;;;;5013346;28;20037;-76
2021/03/04 05:00:09;;;;;;;49.00;46.08;;;;;;;;;;5029605;28;20575;-76
2021/03/04 05:02:37;;;;;;;49.85;46.55;;;;;;;;;;5025966;28;20127;-76
2021/03/04 05:05:08;;;;;;;49.10;45.67;;;;;;;;;;5013873;28;20041;-76
2021/03/04 05:07:35;;;;;;;45.28;42.13;;;;;;;;;;5030120;28;20514;-76
2021/03/04 05:10:06;;;;;;;48.45;45.15;;;;;;;;;;5028513;28;20038;-76
2021/03/04 05:12:33;;;;;;;47.47;44.58;;;;;;;;;;5042326;28;20050;-76
2021/03/04 05:15:00;;;;;;;50.83;47.72;;;;;;;;;;5042504;28;20106;-76
2021/03/04 05:17:27;;;;;;;45.85;42.63;;;;;;;;;;5031477;28;20048;-76
2021/03/04 05:19:54;;;;;;;51.85;48.20;;;;;;;;;;5021686;28;20529;-76
2021/03/04 05:22:21;;;;;;;47.58;44.75;;;;;;;;;;5029202;28;20124;-76
2021/03/04 05:24:47;;;;;;;50.08;46.08;;;;;;;;;;5038471;28;20072;-76
2021/03/04 05:27:14;;;;;;;48.85;45.28;;;;;;;;;;5013206;28;20037;-76
2021/03/04 05:29:41;;;;;;;52.63;48.53;;;;;;;;;;5047432;28;20455;-76
2021/03/04 05:32:08;;;;;;;51.25;47.28;;;;;;;;;;5046992;28;20269;-76
2021/03/04 05:34:38;;;;;;;50.30;46.70;;;;;;;;;;5044875;28;20121;-76
2021/03/04 05:37:05;;;;;;;51.70;48.10;;;;;;;;;;5049235;28;20095;-76
2021/03/04 05:39:32;;;;;;;45.30;41.95;;;;;;;;;;5024836;28;20076;-76
2021/03/04 05:41:59;;;;;;;45.88;42.75;;;;;;;;;;5022039;28;20596;-76
2021/03/04 05:44:27;;;;;;;43.78;40.75;;;;;;;;;;5025956;28;20130;-76
2021/03/04 05:46:54;;;;;;;43.58;40.90;;;;;;;;;;5026791;28;20055;-76
2021/03/04 05:49:24;;;;;;;47.78;44.58;;;;;;;;;;5048143;28;20087;-76
2021/03/04 05:52:00;;;;;;;46.97;43.75;;;;;;;;;;5024917;28;20052;-76
2021/03/04 05:54:28;;;;;;;46.03;42.92;;;;;;;;;;5013612;28;20505;-76
2021/03/04 05:56:59;;;;;;;49.35;46.33;;;;;;;;;;5028237;28;20052;-76
2021/03/04 05:59:26;;;;;;;48.95;45.58;;;;;;;;;;5046619;28;20041;-77
2021/03/04 06:01:54;;;;;;;45.45;42.67;;;;;;;;;;5045170;28;20053;-77
2021/03/04 06:04:21;;;;;;;48.75;45.70;;;;;;;;;;5023094;28;20036;-76
2021/03/04 06:06:48;;;;;;;54.03;49.75;;;;;;;;;;5048948;28;20099;-76
2021/03/04 06:09:15;;;;;;;59.80;53.03;;;;;;;;;;5043480;28;20401;-76
2021/03/04 06:11:42;;;;;;;55.28;50.08;;;;;;;;;;5030178;28;20033;-76
2021/03/04 06:14:08;;;;;;;54.22;50.03;;;;;;;;;;5008206;28;20092;-76
2021/03/04 06:16:35;;;;;;;50.65;46.80;;;;;;;;;;5017864;28;20042;-76
2021/03/04 06:19:02;;;;;;;49.90;46.00;;;;;;;;;;5028541;28;20521;-76
2021/03/04 06:21:29;;;;;;;46.65;43.53;;;;;;;;;;5019655;28;20056;-76
2021/03/04 06:23:57;;;;;;;44.95;41.75;;;;;;;;;;5028919;28;20117;-76
2021/03/04 06:26:29;;;;;;;51.00;47.65;;;;;;;;;;5015652;28;20494;-78
2021/03/04 06:28:56;;;;;;;49.75;46.55;;;;;;;;;;5017946;28;20033;-78
2021/03/04 06:31:23;;;;;;;56.58;51.38;;;;;;;;;;5028174;28;20041;-78
2021/03/04 06:33:51;;;;;;;81.05;71.88;;;;;;;;;;5026736;28;20108;-78
2021/03/04 06:36:18;;;;;;;82.35;74.13;;;;;;;;;;5033458;28;20077;-79
2021/03/04 06:38:55;;;;;;;55.92;51.67;;;;;;;;;;5021603;28;20573;-79
2021/03/04 06:41:23;;;;;;;87.32;78.03;;;;;;;;;;5020729;28;20037;-79
2021/03/04 06:43:59;;;;;;;60.95;54.35;;;;;;;;;;5031505;28;20092;-79
2021/03/04 06:46:26;;;;;;;74.20;66.05;;;;;;;;;;5030996;28;20343;-79
2021/03/04 06:48:54;;;;;;;48.60;45.10;;;;;;;;;;5032532;28;20470;-79
2021/03/04 06:51:21;;;;;;;65.05;58.88;;;;;;;;;;5042844;28;20084;-78
2021/03/04 06:53:52;;;;;;;61.13;55.92;;;;;;;;;;5026613;28;20045;-78
2021/03/04 06:56:29;;;;;;;59.38;54.58;;;;;;;;;;5032033;28;20041;-78
2021/03/04 06:59:00;;;;;;;61.53;56.90;;;;;;;;;;5022002;28;20042;-78
2021/03/04 07:01:27;;;;;;;62.42;57.00;;;;;;;;;;5022378;28;20506;-78
2021/03/04 07:03:54;;;;;;;59.25;54.55;;;;;;;;;;5030750;28;20136;-79
2021/03/04 07:06:38;;;;;;;56.05;51.95;;;;;;;;;;5027058;28;20038;-78
2021/03/04 07:09:06;;;;;;;52.30;48.13;;;;;;;;;;5032084;28;20525;-78
2021/03/04 07:11:36;;;;;;;54.67;50.80;;;;;;;;;;5027927;28;20341;-78
2021/03/04 07:14:06;;;;;;;54.08;49.30;;;;;;;;;;5046939;28;20049;-78
2021/03/04 07:16:43;;;;;;;50.33;46.58;;;;;;;;;;5019050;28;20049;-78
2021/03/04 07:19:18;;;;;;;41.78;39.47;;;;;;;;;;5033829;28;20047;-78
2021/03/04 07:21:46;;;;;;;46.25;42.97;;;;;;;;;;5030588;28;20504;-78
2021/03/04 07:24:13;;;;;;;41.90;39.35;;;;;;;;;;5053367;28;20045;-78
2021/03/04 07:26:40;;;;;;;45.20;42.38;;;;;;;;;;5026288;28;20033;-78
2021/03/04 07:29:08;;;;;;;43.83;41.25;;;;;;;;;;5019983;28;20040;-78
2021/03/04 07:31:37;;;;;;;48.97;45.30;;;;;;;;;;5019335;28;20053;-78
2021/03/04 07:34:05;;;;;;;42.15;39.38;;;;;;;;;;5041719;28;20120;-78
2021/03/04 07:36:32;;;;;;;47.55;44.10;;;;;;;;;;5052468;28;20045;-78
2021/03/04 07:38:59;;;;;;;48.30;45.00;;;;;;;;;;5046764;28;20087;-78
2021/03/04 07:41:42;;;;;;;45.20;41.97;;;;;;;;;;5025288;28;20087;-78
2021/03/04 07:44:10;;;;;;;49.35;45.67;;;;;;;;;;5017892;28;20050;-78
2021/03/04 07:46:39;;;;;;;51.60;47.28;;;;;;;;;;5012772;28;20041;-78
2021/03/04 07:49:07;;;;;;;55.70;49.88;;;;;;;;;;5026689;28;20045;-78
2021/03/04 07:51:47;;;;;;;53.28;48.22;;;;;;;;;;5049490;28;20045;-78
2021/03/04 07:54:26;;;;;;;46.65;41.88;;;;;;;;;;5030869;28;20045;-78
2021/03/04 07:57:03;;;;;;;50.60;46.35;;;;;;;;;;5035263;28;20538;-78
2021/03/04 07:59:30;;;;;;;40.40;37.15;;;;;;;;;;5048209;28;20544;-78
2021/03/04 08:02:01;;;;;;;29.00;25.02;;;;;;;;;;5048365;28;20102;-78
2021/03/04 08:04:30;;;;;;;37.25;33.97;;;;;;;;;;5033474;28;20514;-78
2021/03/04 08:06:58;;;;;;;35.80;33.15;;;;;;;;;;5045905;28;20052;-78
2021/03/04 08:09:25;;;;;;;38.45;35.95;;;;;;;;;;5033786;28;20045;-78
2021/03/04 08:12:03;;;;;;;27.17;24.27;;;;;;;;;;5017436;28;20383;-78
2021/03/04 08:14:30;;;;;;;19.88;17.95;;;;;;;;;;5014813;28;20446;-78
2021/03/04 08:16:58;;;;;;;22.83;20.80;;;;;;;;;;5051213;28;20436;-78
2021/03/04 08:19:32;;;;;;;21.23;19.42;;;;;;;;;;5027298;28;20468;-78
2021/03/04 08:21:58;;;;;;;;;;;;;;;;;;5039522;28;20034;-79
2021/03/04 08:24:29;;;;;;;17.48;16.08;;;;;;;;;;5018554;28;19921;-79
2021/03/04 08:26:57;;;;;;;22.40;20.13;;;;;;;;;;5043736;28;20111;-79
2021/03/04 08:29:25;;;;;;;19.00;17.40;;;;;;;;;;5051222;28;20045;-79
2021/03/04 08:31:53;;;;;;;17.77;16.05;;;;;;;;;;5013241;28;20586;-79
2021/03/04 08:34:20;;;;;;;22.05;19.80;;;;;;;;;;5048369;28;20030;-79
2021/03/04 08:36:51;;;;;;;20.42;18.40;;;;;;;;;;5016202;28;20044;-79
2021/03/04 08:39:21;;;;;;;19.85;17.83;;;;;;;;;;5012063;28;20045;-79
2021/03/04 08:41:48;;;;;;;21.80;18.25;;;;;;;;;;5032621;28;20093;-79
2021/03/04 08:44:18;;;;;;;22.85;20.38;;;;;;;;;;5016514;28;20098;-79
2021/03/04 08:46:49;;;;;;;15.95;14.77;;;;;;;;;;5046474;28;20041;-79
2021/03/04 08:49:20;;;;;;;15.88;14.75;;;;;;;;;;5033257;28;20072;-79
2021/03/04 08:51:48;;;;;;;16.10;14.68;;;;;;;;;;5026142;28;20029;-79
2021/03/04 08:54:21;;;;;;;16.80;15.52;;;;;;;;;;5047857;28;20079;-79
2021/03/04 08:56:55;;;;;;;16.38;15.07;;;;;;;;;;5035435;28;20045;-79
2021/03/04 08:59:23;;;;;;;16.08;14.80;;;;;;;;;;5026976;28;20048;-79
2021/03/04 09:01:50;;;;;;;15.63;14.15;;;;;;;;;;5050289;28;20041;-79
2021/03/04 09:04:20;;;;;;;16.77;15.27;;;;;;;;;;5045596;28;20051;-79
2021/03/04 09:06:48;;;;;;;14.73;13.48;;;;;;;;;;5028755;28;20037;-79
2021/03/04 09:09:41;;;;;;;17.50;16.00;;;;;;;;;;5049270;28;20103;-79
2021/03/04 09:12:08;;;;;;;15.38;14.15;;;;;;;;;;5018994;28;20555;-79
2021/03/04 09:14:35;;;;;;;17.48;15.82;;;;;;;;;;5021825;28;20116;-79
2021/03/04 09:17:02;;;;;;;39.15;23.98;;;;;;;;;;5036361;28;20071;-79
2021/03/04 09:19:34;;;;;;;39.25;24.73;;;;;;;;;;5044489;28;20053;-79
2021/03/04 09:22:05;;;;;;;17.98;15.90;;;;;;;;;;5049091;28;20532;-79
2021/03/04 09:24:33;;;;;;;18.67;16.65;;;;;;;;;;5047302;28;20041;-79
2021/03/04 09:27:08;;;;;;;10.82;9.95;;;;;;;;;;5028607;28;20385;-79
2021/03/04 09:29:38;;;;;;;12.48;11.23;;;;;;;;;;5032684;28;20048;-79
2021/03/04 09:32:05;;;;;;;14.05;12.68;;;;;;;;;;5040113;28;20123;-80
2021/03/04 09:34:39;;;;;;;10.77;10.27;;;;;;;;;;5024096;28;20037;-80
2021/03/04 09:37:09;;;;;;;11.55;10.18;;;;;;;;;;5032501;28;20045;-80
2021/03/04 09:39:41;;;;;;;10.50;9.95;;;;;;;;;;5027188;28;20036;-80
2021/03/04 09:42:10;;;;;;;12.10;10.93;;;;;;;;;;5031947;28;20045;-80
2021/03/04 09:44:48;;;;;;;10.70;10.00;;;;;;;;;;5037585;28;20111;-80
2021/03/04 09:47:16;;;;;;;11.35;10.50;;;;;;;;;;5040260;28;20119;-80
2021/03/04 09:49:43;;;;;;;10.43;9.82;;;;;;;;;;5039332;28;20037;-80
2021/03/04 09:52:19;;;;;;;11.93;10.95;;;;;;;;;;5026134;28;20034;-80
2021/03/04 09:55:05;;;;;;;10.73;9.73;;;;;;;;;;5047349;28;20104;-80
2021/03/04 09:57:32;;;;;;;10.68;10.05;;;;;;;;;;5049676;28;20090;-80
2021/03/04 10:00:00;;;;;;;17.48;9.77;;;;;;;;;;5044103;28;20118;-80
2021/03/04 10:02:37;;;;;;;11.25;10.38;;;;;;;;;;5030821;28;20044;-80
2021/03/04 10:05:04;;;;;;;11.50;10.70;;;;;;;;;;5048688;28;20394;-80
2021/03/04 10:07:32;;;;;;;10.82;9.70;;;;;;;;;;5047910;28;20111;-80
2021/03/04 10:09:59;;;;;;;13.57;10.05;;;;;;;;;;5019115;28;20048;-80
2021/03/04 10:12:26;;;;;;;11.73;11.00;;;;;;;;;;5047571;28;20052;-80
2021/03/04 10:14:55;;;;;;;10.25;9.73;;;;;;;;;;5052137;28;20090;-80
2021/03/04 10:17:22;;;;;;;11.73;10.25;;;;;;;;;;5034250;28;20099;-80
2021/03/04 10:19:49;;;;;;;11.32;10.27;;;;;;;;;;5047182;28;20045;-80
2021/03/04 10:22:16;;;;;;;11.25;10.50;;;;;;;;;;5019639;28;20451;-80
2021/03/04 10:24:43;;;;;;;10.48;9.55;;;;;;;;;;5050814;28;20045;-80
2021/03/04 10:27:10;;;;;;;10.18;9.05;;;;;;;;;;5050324;28;20038;-80
2021/03/04 10:29:37;;;;;;;17.08;9.35;;;;;;;;;;5053684;28;20064;-80
2021/03/04 10:32:04;;;;;;;9.10;8.48;;;;;;;;;;5029922;28;20457;-80
2021/03/04 10:34:32;;;;;;;10.05;9.35;;;;;;;;;;5034070;28;20048;-80
2021/03/04 10:36:59;;;;;;;8.07;7.70;;;;;;;;;;5050688;28;20040;-80
2021/03/04 10:39:26;;;;;;;9.20;8.40;;;;;;;;;;5050213;28;20041;-80
2021/03/04 10:41:52;;;;;;;8.43;7.78;;;;;;;;;;5015554;28;20038;-80
2021/03/04 10:44:19;;;;;;;8.80;8.00;;;;;;;;;;5047033;28;20086;-80
2021/03/04 10:46:47;;;;;;;7.40;6.97;;;;;;;;;;5033493;28;20092;-80
2021/03/04 10:49:14;;;;;;;7.63;7.00;;;;;;;;;;5036087;28;20502;-80
2021/03/04 10:51:41;;;;;;;8.45;6.60;;;;;;;;;;5030875;28;20047;-80
2021/03/04 10:54:08;;;;;;;6.75;6.32;;;;;;;;;;5051833;28;20037;-80
2021/03/04 10:56:35;;;;;;;7.00;6.38;;;;;;;;;;5046550;28;20073;-80
2021/03/04 10:59:02;;;;;;;6.47;5.75;;;;;;;;;;5042903;28;20056;-80
2021/03/04 11:01:29;;;;;;;6.32;6.00;;;;;;;;;;5032589;28;20124;-80
2021/03/04 11:04:00;;;;;;;6.53;5.80;;;;;;;;;;5030586;28;20045;-80
2021/03/04 11:06:27;;;;;;;6.18;5.68;;;;;;;;;;5036373;28;20037;-80
2021/03/04 11:08:53;;;;;;;5.80;5.30;;;;;;;;;;5045613;28;20573;-80
2021/03/04 11:11:21;;;;;;;5.85;5.40;;;;;;;;;;5025063;28;20037;-80
2021/03/04 11:13:48;;;;;;;6.20;5.80;;;;;;;;;;5048798;28;20389;-80
2021/03/04 11:16:17;;;;;;;5.07;4.40;;;;;;;;;;5030589;28;20045;-80
2021/03/04 11:18:44;;;;;;;4.28;4.05;;;;;;;;;;5045095;28;20049;-80
2021/03/04 11:21:11;;;;;;;4.65;4.53;;;;;;;;;;5027354;28;20062;-80
2021/03/04 11:23:38;;;;;;;3.75;3.65;;;;;;;;;;5034559;28;20127;-80
2021/03/04 11:26:05;;;;;;;5.78;5.40;;;;;;;;;;5047296;28;20064;-80
2021/03/04 11:28:32;;;;;;;7.47;6.70;;;;;;;;;;5047459;28;20064;-80
2021/03/04 11:30:58;;;;;;;4.05;3.85;;;;;;;;;;5044828;28;20091;-80
2021/03/04 11:33:26;;;;;;;4.03;3.83;;;;;;;;;;5029882;28;20051;-80
2021/03/04 11:35:53;;;;;;;4.65;4.45;;;;;;;;;;5026521;28;20543;-80
2021/03/04 11:38:19;;;;;;;4.13;3.92;;;;;;;;;;5048013;28;20489;-80
2021/03/04 11:40:46;;;;;;;4.97;4.50;;;;;;;;;;5029103;28;20389;-80
2021/03/04 11:43:13;;;;;;;5.10;4.47;;;;;;;;;;5018164;28;20099;-80
2021/03/04 11:45:40;;;;;;;4.13;3.80;;;;;;;;;;5044888;28;20045;-80
2021/03/04 11:48:07;;;;;;;4.50;4.13;;;;;;;;;;5033296;28;20116;-80
2021/03/04 11:50:34;;;;;;;4.88;4.47;;;;;;;;;;5026719;28;20508;-80
2021/03/04 11:53:01;;;;;;;4.00;3.80;;;;;;;;;;5049981;28;20036;-80
2021/03/04 11:55:28;;;;;;;4.57;4.18;;;;;;;;;;5039964;28;20071;-80
2021/03/04 11:57:55;;;;;;;5.32;3.70;;;;;;;;;;5045727;28;20135;-80
2021/03/04 12:00:22;;;;;;;4.03;3.83;;;;;;;;;;5047029;28;20579;-80
2021/03/04 12:02:53;;;;;;;4.35;4.15;;;;;;;;;;5032598;28;20064;-80
2021/03/04 12:05:21;;;;;;;4.32;4.03;;;;;;;;;;5048815;28;20394;-81
2021/03/04 12:07:48;;;;;;;4.03;3.25;;;;;;;;;;5050514;28;20041;-81
2021/03/04 12:10:15;;;;;;;4.03;3.15;;;;;;;;;;5047096;28;20102;-81
2021/03/04 12:12:42;;;;;;;4.10;3.90;;;;;;;;;;5031542;28;20049;-81
2021/03/04 12:15:09;;;;;;;3.28;3.08;;;;;;;;;;5034783;28;20398;-81
2021/03/04 12:17:36;;;;;;;4.10;3.90;;;;;;;;;;5027274;28;20049;-81
2021/03/04 12:20:04;;;;;;;4.20;3.90;;;;;;;;;;5015429;28;20053;-81
2021/03/04 12:22:31;;;;;;;3.55;3.22;;;;;;;;;;5033489;28;20041;-81
2021/03/04 12:24:58;;;;;;;3.30;3.13;;;;;;;;;;5050046;28;20041;-81
2021/03/04 12:27:25;;;;;;;3.13;3.00;;;;;;;;;;5053509;28;20045;-81
2021/03/04 12:29:52;;;;;;;3.85;3.75;;;;;;;;;;5052574;28;20056;-81
2021/03/04 12:32:19;;;;;;;4.45;4.15;;;;;;;;;;5040967;28;20060;-81
2021/03/04 12:34:46;;;;;;;6.18;3.10;;;;;;;;;;5054532;28;20072;-81
2021/03/04 12:37:13;;;;;;;3.88;3.67;;;;;;;;;;5038452;28;20036;-81
2021/03/04 12:39:40;;;;;;;4.60;4.25;;;;;;;;;;5050176;28;20056;-81
2021/03/04 12:42:06;;;;;;;3.38;3.28;;;;;;;;;;5045829;28;20120;-81
2021/03/04 12:44:33;;;;;;;3.05;2.95;;;;;;;;;;5056174;28;20045;-81
2021/03/04 12:47:00;;;;;;;4.88;3.10;;;;;;;;;;5027286;28;20509;-81
2021/03/04 12:49:27;;;;;;;3.67;3.42;;;;;;;;;;5047403;28;20041;-81
2021/03/04 12:51:54;;;;;;;3.22;3.13;;;;;;;;;;5028589;28;20559;-81
2021/03/04 12:54:21;;;;;;;2.97;2.45;;;;;;;;;;5026530;28;20561;-81
2021/03/04 12:57:01;;;;;;;3.40;3.20;;;;;;;;;;5049466;28;20046;-81
2021/03/04 12:59:28;;;;;;;5.75;2.50;;;;;;;;;;5048270;28;20114;-81
2021/03/04 13:01:55;;;;;;;3.65;3.45;;;;;;;;;;5046098;28;20068;-81
2021/03/04 13:04:22;;;;;;;3.67;3.38;;;;;;;;;;5032333;28;20429;-81
2021/03/04 13:06:50;;;;;;;3.50;3.20;;;;;;;;;;5043825;28;20033;-81
2021/03/04 13:09:17;;;;;;;3.92;3.70;;;;;;;;;;5048943;28;20036;-81
2021/03/04 13:11:44;;;;;;;2.90;2.70;;;;;;;;;;5030830;28;20090;-81
2021/03/04 13:14:12;;;;;;;3.28;3.17;;;;;;;;;;5028420;28;20071;-81
2021/03/04 13:16:39;;;;;;;3.47;3.30;;;;;;;;;;5037273;28;20253;-81
2021/03/04 13:19:06;;;;;;;4.40;3.45;;;;;;;;;;5046457;28;20611;-81
2021/03/04 13:21:33;;;;;;;3.53;3.25;;;;;;;;;;5047619;28;20040;-81
2021/03/04 13:24:00;;;;;;;5.43;3.15;;;;;;;;;;5047704;28;20433;-81
2021/03/04 13:26:27;;;;;;;2.95;2.67;;;;;;;;;;5024900;28;20041;-81
2021/03/04 13:28:54;;;;;;;4.65;4.45;;;;;;;;;;5033727;28;20037;-81
2021/03/04 13:31:21;;;;;;;4.13;2.90;;;;;;;;;;5019337;28;20069;-81
2021/03/04 13:33:50;;;;;;;3.50;3.30;;;;;;;;;;5044427;28;20033;-81
2021/03/04 13:36:16;;;;;;;3.90;3.80;;;;;;;;;;5043661;28;20052;-83
2021/03/04 13:38:43;;;;;;;3.05;2.95;;;;;;;;;;5045129;28;20041;-83
2021/03/04 13:41:11;;;;;;;3.95;3.85;;;;;;;;;;5035403;28;20068;-84
2021/03/04 13:43:40;;;;;;;3.95;3.75;;;;;;;;;;5020164;28;20480;-84
2021/03/04 13:46:07;;;;;;;3.70;3.50;;;;;;;;;;5051046;28;20135;-84
2021/03/04 13:48:34;;;;;;;4.20;3.88;;;;;;;;;;5052005;28;20083;-84
2021/03/04 13:51:02;;;;;;;6.43;3.63;;;;;;;;;;5048643;28;20037;-84
2021/03/04 13:53:29;;;;;;;2.58;2.47;;;;;;;;;;5052297;28;20075;-84
2021/03/04 13:55:56;;;;;;;3.53;3.28;;;;;;;;;;5034124;28;20037;-83
2021/03/04 13:58:23;;;;;;;2.80;2.70;;;;;;;;;;5028827;28;20075;-83
2021/03/04 14:00:50;;;;;;;4.50;4.20;;;;;;;;;;5048657;28;20037;-83
2021/03/04 14:03:19;;;;;;;4.40;4.05;;;;;;;;;;5047869;28;20066;-83
2021/03/04 14:05:46;;;;;;;4.57;4.28;;;;;;;;;;5054693;28;20470;-83
2021/03/04 14:08:13;;;;;;;4.07;3.78;;;;;;;;;;5050193;28;20044;-83
2021/03/04 14:10:40;;;;;;;3.40;3.30;;;;;;;;;;5032852;28;20044;-85
2021/03/04 14:13:07;;;;;;;4.20;3.40;;;;;;;;;;5020265;28;20037;-85
2021/03/04 14:15:34;;;;;;;4.68;3.85;;;;;;;;;;5048368;28;20064;-85
2021/03/04 14:18:02;;;;;;;3.90;3.70;;;;;;;;;;5027334;28;20112;-84
2021/03/04 14:20:31;;;;;;;4.35;4.00;;;;;;;;;;5032557;28;20064;-84
2021/03/04 14:22:58;;;;;;;4.20;3.90;;;;;;;;;;5034005;28;20052;-84
2021/03/04 14:25:25;;;;;;;9.05;7.13;;;;;;;;;;5035733;28;20047;-84
2021/03/04 14:28:08;;;;;;;7.00;6.45;;;;;;;;;;5048301;28;20067;-84
2021/03/04 14:30:35;;;;;;;8.35;7.35;;;;;;;;;;5018126;28;20048;-84
2021/03/04 14:33:02;;;;;;;28.40;21.98;;;;;;;;;;5025924;28;20065;-84